createdAt,value
2022-12-03T00:00:23.769Z,101186.02
2022-12-03T00:02:56.356Z,101186.00
2022-12-03T00:05:10.932Z,101190.35
2022-12-03T00:08:33.658Z,101186.55
2022-12-03T00:10:46.293Z,101191.66
2022-12-03T00:12:59.083Z,101189.27
2022-12-03T00:15:14.967Z,101188.98
2022-12-03T00:17:27.811Z,101183.33
2022-12-03T00:19:40.951Z,101180.67
2022-12-03T00:21:55.345Z,101182.56
2022-12-03T00:24:08.805Z,101186.80
2022-12-03T00:26:22.284Z,101185.30
2022-12-03T00:28:37.757Z,101182.91
2022-12-03T00:30:50.435Z,101185.51
2022-12-03T00:33:03.160Z,101180.25
2022-12-03T00:35:16.170Z,101178.49
2022-12-03T00:37:29.054Z,101171.17
2022-12-03T00:39:41.559Z,101170.52
2022-12-03T00:41:54.251Z,101169.28
2022-12-03T00:44:06.901Z,101164.07
2022-12-03T00:46:21.460Z,101163.01
2022-12-03T00:48:36.923Z,101160.29
2022-12-03T00:50:49.537Z,101159.18
2022-12-03T00:53:03.484Z,101153.16
2022-12-03T00:55:17.289Z,101147.52
2022-12-03T00:57:31.864Z,101144.45
2022-12-03T00:59:44.642Z,101143.25
2022-12-03T01:01:58.085Z,101140.27
2022-12-03T01:04:10.881Z,101139.92
2022-12-03T01:06:23.619Z,101139.39
2022-12-03T01:08:36.683Z,101137.95
2022-12-03T01:10:49.346Z,101138.55
2022-12-03T01:13:02.249Z,101136.34
2022-12-03T01:15:15.966Z,101131.84
2022-12-03T01:17:29.115Z,101137.27
2022-12-03T01:19:47.853Z,101139.00
2022-12-03T01:22:01.119Z,101135.73
2022-12-03T01:24:14.403Z,101128.52
2022-12-03T01:26:28.261Z,101129.01
2022-12-03T01:28:42.985Z,101127.72
2022-12-03T01:31:12.065Z,101126.44
2022-12-03T01:33:24.729Z,101120.63
2022-12-03T01:35:37.863Z,101118.56
2022-12-03T01:37:50.669Z,101111.13
2022-12-03T01:40:03.327Z,101110.84
2022-12-03T01:42:20.101Z,101115.66
2022-12-03T01:44:34.618Z,101113.41
2022-12-03T01:46:48.758Z,101114.91
2022-12-03T01:49:02.930Z,101106.55
2022-12-03T01:51:16.346Z,101112.35
2022-12-03T01:53:29.226Z,101109.30
2022-12-03T01:55:45.619Z,101109.20
2022-12-03T01:58:05.543Z,101104.43
2022-12-03T02:00:22.402Z,101108.36
2022-12-03T02:02:36.324Z,101109.67
2022-12-03T02:07:31.478Z,101105.91
2022-12-03T02:09:44.422Z,101101.94
2022-12-03T02:11:57.976Z,101100.57
2022-12-03T02:14:13.738Z,101101.27
2022-12-03T02:16:26.865Z,101099.38
2022-12-03T02:18:39.906Z,101095.23
2022-12-03T02:20:59.533Z,101091.81
2022-12-03T02:23:17.432Z,101097.05
2022-12-03T02:25:33.112Z,101099.55
2022-12-03T02:27:46.102Z,101092.20
2022-12-03T02:29:59.438Z,101085.10
2022-12-03T02:32:13.199Z,101085.33
2022-12-03T02:34:43.186Z,101079.34
2022-12-03T02:36:56.207Z,101076.75
2022-12-03T02:39:09.292Z,101078.92
2022-12-03T02:41:40.574Z,101078.16
2022-12-03T02:43:53.712Z,101083.11
2022-12-03T02:46:08.035Z,101081.80
2022-12-03T02:48:24.084Z,101079.63
2022-12-03T02:50:40.611Z,101077.04
2022-12-03T02:52:55.903Z,101072.79
2022-12-03T02:55:11.234Z,101077.62
2022-12-03T02:57:24.268Z,101069.34
2022-12-03T02:59:37.193Z,101073.75
2022-12-03T03:01:50.430Z,101069.97
2022-12-03T03:04:05.623Z,101070.61
2022-12-03T03:06:19.271Z,101079.33
2022-12-03T03:08:33.789Z,101072.91
2022-12-03T03:10:47.917Z,101071.47
2022-12-03T03:13:01.417Z,101068.33
2022-12-03T03:15:15.705Z,101060.69
2022-12-03T03:17:29.743Z,101064.29
2022-12-03T03:19:42.944Z,101056.25
2022-12-03T03:21:56.288Z,101063.51
2022-12-03T03:24:09.510Z,101062.78
2022-12-03T03:26:22.363Z,101062.34
2022-12-03T03:28:37.794Z,101062.86
2022-12-03T03:30:50.799Z,101062.70
2022-12-03T03:33:04.363Z,101066.05
2022-12-03T03:35:18.933Z,101059.95
2022-12-03T03:37:32.358Z,101057.27
2022-12-03T03:39:45.046Z,101054.14
2022-12-03T03:41:57.757Z,101051.58
2022-12-03T03:44:12.518Z,101048.17
2022-12-03T03:46:26.131Z,101056.70
2022-12-03T03:48:39.651Z,101060.67
2022-12-03T03:50:54.387Z,101069.63
2022-12-03T03:53:08.064Z,101063.14
2022-12-03T03:55:21.491Z,101058.71
2022-12-03T03:57:34.443Z,101065.02
2022-12-03T03:59:49.836Z,101064.36
2022-12-03T04:02:02.676Z,101056.03
2022-12-03T04:04:21.635Z,101061.36
2022-12-03T04:06:35.469Z,101060.70
2022-12-03T04:08:48.056Z,101066.80
2022-12-03T04:11:17.783Z,101059.27
2022-12-03T04:13:30.698Z,101060.80
2022-12-03T04:15:43.257Z,101066.48
2022-12-03T04:18:09.470Z,101071.98
2022-12-03T04:20:22.869Z,101072.31
2022-12-03T04:22:45.510Z,101070.34
2022-12-03T04:25:18.137Z,101050.63
2022-12-03T04:27:56.597Z,101048.84
2022-12-03T04:30:11.238Z,101055.59
2022-12-03T04:32:40.216Z,101075.07
2022-12-03T04:35:09.975Z,101083.42
2022-12-03T04:37:22.648Z,101098.54
2022-12-03T04:39:35.774Z,101103.97
2022-12-03T04:41:50.707Z,101115.86
2022-12-03T04:44:22.954Z,101105.56
2022-12-03T04:46:33.237Z,101116.36
2022-12-03T04:48:45.935Z,101131.66
2022-12-03T04:50:58.644Z,101135.95
2022-12-03T04:53:11.621Z,101148.35
2022-12-03T04:55:24.505Z,101134.33
2022-12-03T04:57:37.776Z,101126.55
2022-12-03T04:59:50.377Z,101127.61
2022-12-03T05:02:03.202Z,101113.69
2022-12-03T05:04:16.255Z,101117.29
2022-12-03T05:06:30.083Z,101119.41
2022-12-03T05:08:43.236Z,101132.23
2022-12-03T05:10:56.600Z,101137.20
2022-12-03T05:13:09.522Z,101140.90
2022-12-03T05:15:22.271Z,101131.93
2022-12-03T05:17:35.874Z,101140.71
2022-12-03T05:20:05.971Z,101130.27
2022-12-03T05:22:18.902Z,101129.94
2022-12-03T05:24:31.952Z,101134.31
2022-12-03T05:26:45.315Z,101144.48
2022-12-03T05:28:58.586Z,101141.87
2022-12-03T05:31:11.898Z,101143.99
2022-12-03T05:33:25.022Z,101151.81
2022-12-03T05:35:37.779Z,101156.42
2022-12-03T05:37:50.984Z,101156.67
2022-12-03T05:40:03.706Z,101159.11
2022-12-03T05:42:34.087Z,101161.35
2022-12-03T05:44:47.352Z,101152.36
2022-12-03T05:47:00.517Z,101141.24
2022-12-03T05:49:13.358Z,101126.35
2022-12-03T05:51:26.107Z,101117.52
2022-12-03T05:53:39.314Z,101109.31
2022-12-03T05:55:52.043Z,101101.30
2022-12-03T05:58:04.897Z,101102.88
2022-12-03T06:00:21.602Z,101100.16
2022-12-03T06:02:34.575Z,101093.66
2022-12-03T06:04:47.624Z,101093.59
2022-12-03T06:07:00.352Z,101092.98
2022-12-03T06:09:13.759Z,101087.07
2022-12-03T06:11:26.520Z,101091.41
2022-12-03T06:13:40.031Z,101094.34
2022-12-03T06:15:53.838Z,101094.74
2022-12-03T06:18:06.951Z,101099.10
2022-12-03T06:20:21.452Z,101100.06
2022-12-03T06:22:34.612Z,101090.84
2022-12-03T06:24:47.774Z,101086.76
2022-12-03T06:27:00.562Z,101076.89
2022-12-03T06:29:13.611Z,101071.21
2022-12-03T06:31:26.128Z,101070.37
2022-12-03T06:33:38.917Z,101066.86
2022-12-03T06:35:51.807Z,101075.73
2022-12-03T06:38:04.462Z,101071.43
2022-12-03T06:40:19.543Z,101062.25
2022-12-03T06:42:32.112Z,101051.91
2022-12-03T06:44:45.239Z,101051.77
2022-12-03T06:46:57.643Z,101045.38
2022-12-03T06:49:10.653Z,101042.79
2022-12-03T06:51:23.400Z,101050.56
2022-12-03T06:53:39.064Z,101051.27
2022-12-03T06:55:51.940Z,101052.81
2022-12-03T06:58:04.652Z,101053.76
2022-12-03T07:00:20.057Z,101048.69
2022-12-03T07:02:32.838Z,101046.77
2022-12-03T07:04:46.516Z,101052.63
2022-12-03T07:06:59.511Z,101049.64
2022-12-03T07:09:12.146Z,101051.33
2022-12-03T07:11:34.106Z,101056.90
2022-12-03T07:13:47.094Z,101058.05
2022-12-03T07:15:59.793Z,101055.05
2022-12-03T07:18:12.481Z,101050.01
2022-12-03T07:20:25.763Z,101046.33
2022-12-03T07:22:38.692Z,101042.50
2022-12-03T07:24:51.922Z,101040.55
2022-12-03T07:27:05.875Z,101043.91
2022-12-03T07:29:18.929Z,101041.04
2022-12-03T07:31:32.498Z,101043.54
2022-12-03T07:33:47.018Z,101034.34
2022-12-03T07:36:00.851Z,101034.02
2022-12-03T07:38:14.048Z,101031.00
2022-12-03T07:40:26.980Z,101034.83
2022-12-03T07:42:39.985Z,101028.27
2022-12-03T07:44:53.050Z,101025.77
2022-12-03T07:47:06.031Z,101027.54
2022-12-03T07:49:18.717Z,101029.75
2022-12-03T07:51:32.494Z,101022.90
2022-12-03T07:53:45.384Z,101018.73
2022-12-03T07:55:58.145Z,101018.48
2022-12-03T07:58:10.705Z,101020.45
2022-12-03T08:00:25.054Z,101013.94
2022-12-03T08:02:38.692Z,101021.00
2022-12-03T08:04:51.427Z,101017.93
2022-12-03T08:07:05.901Z,101014.80
2022-12-03T08:09:18.888Z,101019.00
2022-12-03T08:11:33.487Z,101018.30
2022-12-03T08:13:46.760Z,101020.79
2022-12-03T08:16:03.030Z,101023.44
2022-12-03T08:18:20.668Z,101024.84
2022-12-03T08:20:36.570Z,101022.35
2022-12-03T08:22:50.603Z,101030.77
2022-12-03T08:25:04.683Z,101026.17
2022-12-03T08:27:20.468Z,101023.36
2022-12-03T08:29:37.134Z,101032.48
2022-12-03T08:31:55.916Z,101030.94
2022-12-03T08:34:25.910Z,101033.36
2022-12-03T08:36:39.325Z,101033.70
2022-12-03T08:38:55.537Z,101033.15
2022-12-03T08:41:14.498Z,101039.98
2022-12-03T08:43:28.641Z,101042.33
2022-12-03T08:45:47.125Z,101035.12
2022-12-03T08:48:01.012Z,101039.77
2022-12-03T08:50:32.214Z,101037.61
2022-12-03T08:52:44.796Z,101033.46
2022-12-03T08:54:59.544Z,101035.59
2022-12-03T08:57:31.085Z,101032.40
2022-12-03T08:59:45.634Z,101030.61
2022-12-03T09:01:58.966Z,101038.65
2022-12-03T09:04:28.599Z,101035.16
2022-12-03T09:06:41.334Z,101035.72
2022-12-03T09:08:54.323Z,101038.95
2022-12-03T09:11:06.955Z,101043.26
2022-12-03T09:13:19.655Z,101039.04
2022-12-03T09:15:34.077Z,101043.73
2022-12-03T09:17:47.274Z,101044.95
2022-12-03T09:20:00.079Z,101053.23
2022-12-03T09:22:13.671Z,101057.42
2022-12-03T09:24:28.347Z,101051.45
2022-12-03T09:26:42.515Z,101050.30
2022-12-03T09:28:55.139Z,101056.08
2022-12-03T09:31:08.168Z,101062.06
2022-12-03T09:33:21.150Z,101059.50
2022-12-03T09:35:34.409Z,101058.88
2022-12-03T09:37:47.123Z,101064.01
2022-12-03T09:40:00.794Z,101056.90
2022-12-03T09:42:13.969Z,101064.16
2022-12-03T09:44:27.182Z,101055.66
2022-12-03T09:46:41.526Z,101053.88
2022-12-03T09:48:56.558Z,101053.79
2022-12-03T09:51:11.189Z,101056.92
2022-12-03T09:53:26.875Z,101057.37
2022-12-03T09:55:40.236Z,101055.66
2022-12-03T09:57:54.332Z,101054.45
2022-12-03T10:00:10.011Z,101056.54
2022-12-03T10:02:28.278Z,101051.38
2022-12-03T10:04:41.189Z,101057.98
2022-12-03T10:06:55.420Z,101055.86
2022-12-03T10:09:09.251Z,101060.38
2022-12-03T10:11:24.502Z,101060.64
2022-12-03T10:13:39.618Z,101062.46
2022-12-03T10:15:52.468Z,101060.30
2022-12-03T10:18:22.413Z,101070.89
2022-12-03T10:20:36.260Z,101067.58
2022-12-03T10:22:49.854Z,101075.67
2022-12-03T10:25:15.307Z,101079.98
2022-12-03T10:27:33.457Z,101077.38
2022-12-03T10:29:56.212Z,101082.27
2022-12-03T10:32:11.155Z,101084.36
2022-12-03T10:34:31.588Z,101082.23
2022-12-03T10:36:44.731Z,101084.84
2022-12-03T10:39:20.407Z,101091.91
2022-12-03T10:41:34.331Z,101081.75
2022-12-03T10:43:47.044Z,101082.95
2022-12-03T10:46:20.221Z,101076.70
2022-12-03T10:48:33.363Z,101073.51
2022-12-03T10:50:54.304Z,101077.61
2022-12-03T10:53:07.408Z,101076.68
2022-12-03T10:55:21.234Z,101075.11
2022-12-03T10:57:33.892Z,101074.70
2022-12-03T10:59:47.579Z,101075.15
2022-12-03T11:02:00.456Z,101072.33
2022-12-03T11:04:24.777Z,101072.41
2022-12-03T11:06:38.382Z,101070.75
2022-12-03T11:08:57.506Z,101066.50
2022-12-03T11:11:19.586Z,101079.27
2022-12-03T11:13:49.889Z,101073.80
2022-12-03T11:16:03.231Z,101076.35
2022-12-03T11:18:36.196Z,101078.40
2022-12-03T11:21:12.183Z,101075.61
2022-12-03T11:24:01.166Z,101070.38
2022-12-03T11:26:18.805Z,101072.56
2022-12-03T11:28:57.727Z,101069.88
2022-12-03T11:31:13.394Z,101073.21
2022-12-03T11:33:32.386Z,101076.21
2022-12-03T11:36:10.530Z,101074.56
2022-12-03T11:38:53.258Z,101084.38
2022-12-03T11:41:16.676Z,101080.10
2022-12-03T11:43:58.847Z,101083.73
2022-12-03T11:46:17.292Z,101087.40
2022-12-03T11:48:30.282Z,101079.95
2022-12-03T11:50:44.848Z,101079.95
2022-12-03T11:53:02.377Z,101083.53
2022-12-03T11:55:29.335Z,101084.48
2022-12-03T11:57:46.182Z,101081.85
2022-12-03T12:00:08.202Z,101080.98
2022-12-03T12:02:29.254Z,101087.86
2022-12-03T12:04:44.116Z,101095.10
2022-12-03T12:06:56.870Z,101102.92
2022-12-03T12:09:09.898Z,101099.90
2022-12-03T12:11:29.288Z,101098.29
2022-12-03T12:13:59.083Z,101101.71
2022-12-03T12:16:13.038Z,101103.39
2022-12-03T12:18:46.740Z,101108.48
2022-12-03T12:20:59.572Z,101103.53
2022-12-03T12:23:31.788Z,101099.85
2022-12-03T12:25:48.299Z,101106.20
2022-12-03T12:28:05.329Z,101103.59
2022-12-03T12:30:20.878Z,101105.17
2022-12-03T12:32:35.289Z,101116.55
2022-12-03T12:34:51.392Z,101120.45
2022-12-03T12:37:07.407Z,101113.04
2022-12-03T12:39:20.546Z,101118.52
2022-12-03T12:41:33.476Z,101118.86
2022-12-03T12:43:46.372Z,101116.23
2022-12-03T12:46:13.642Z,101118.93
2022-12-03T12:48:35.231Z,101129.30
2022-12-03T12:50:50.095Z,101129.02
2022-12-03T12:53:05.806Z,101137.23
2022-12-03T12:55:19.187Z,101134.48
2022-12-03T12:57:31.821Z,101126.98
2022-12-03T12:59:45.149Z,101132.98
2022-12-03T13:01:58.390Z,101142.16
2022-12-03T13:04:17.503Z,101131.65
2022-12-03T13:06:33.277Z,101125.73
2022-12-03T13:08:47.803Z,101132.52
2022-12-03T13:11:01.671Z,101132.50
2022-12-03T13:13:32.916Z,101132.69
2022-12-03T13:15:51.674Z,101133.73
2022-12-03T13:18:04.555Z,101144.73
2022-12-03T13:20:23.985Z,101141.70
2022-12-03T13:22:36.939Z,101139.27
2022-12-03T13:24:53.352Z,101137.36
2022-12-03T13:27:12.265Z,101141.74
2022-12-03T13:29:25.815Z,101143.55
2022-12-03T13:31:43.764Z,101153.09
2022-12-03T13:33:57.745Z,101151.40
2022-12-03T13:36:18.795Z,101155.11
2022-12-03T13:38:31.588Z,101155.52
2022-12-03T13:40:45.214Z,101153.38
2022-12-03T13:42:58.131Z,101157.66
2022-12-03T13:45:29.559Z,101150.92
2022-12-03T13:47:43.269Z,101156.25
2022-12-03T13:49:57.963Z,101157.46
2022-12-03T13:52:18.937Z,101159.64
2022-12-03T13:54:38.137Z,101161.13
2022-12-03T13:56:51.659Z,101162.62
2022-12-03T13:59:05.541Z,101157.08
2022-12-03T14:01:18.435Z,101162.46
2022-12-03T14:03:31.220Z,101168.29
2022-12-03T14:05:44.134Z,101180.88
2022-12-03T14:07:59.326Z,101178.52
2022-12-03T14:10:14.572Z,101180.98
2022-12-03T14:12:34.534Z,101177.64
2022-12-03T14:14:47.764Z,101183.02
2022-12-03T14:17:00.392Z,101185.62
2022-12-03T14:19:12.736Z,101184.32
2022-12-03T14:21:25.624Z,101184.70
2022-12-03T14:23:38.626Z,101187.23
2022-12-03T14:25:51.067Z,101192.97
2022-12-03T14:28:03.890Z,101195.80
2022-12-03T14:30:18.541Z,101199.35
2022-12-03T14:32:31.342Z,101201.13
2022-12-03T14:34:44.178Z,101203.03
2022-12-03T14:36:57.204Z,101202.75
2022-12-03T14:39:11.178Z,101203.70
2022-12-03T14:41:41.128Z,101199.56
2022-12-03T14:43:53.893Z,101195.66
2022-12-03T14:46:06.480Z,101206.54
2022-12-03T14:48:19.255Z,101195.92
2022-12-03T14:50:31.765Z,101206.06
2022-12-03T14:52:44.505Z,101206.13
2022-12-03T14:54:56.908Z,101206.73
2022-12-03T14:57:10.820Z,101208.20
2022-12-03T14:59:27.616Z,101227.45
2022-12-03T15:01:41.522Z,101229.98
2022-12-03T15:03:54.271Z,101231.55
2022-12-03T15:06:06.785Z,101245.45
2022-12-03T15:08:19.707Z,101239.02
2022-12-03T15:10:33.393Z,101240.00
2022-12-03T15:12:47.397Z,101245.14
2022-12-03T15:15:01.245Z,101250.27
2022-12-03T15:17:14.967Z,101249.38
2022-12-03T15:19:27.997Z,101259.55
2022-12-03T15:21:40.600Z,101268.81
2022-12-03T15:23:56.068Z,101260.33
2022-12-03T15:26:08.888Z,101264.18
2022-12-03T15:28:22.852Z,101273.41
2022-12-03T15:30:38.953Z,101266.72
2022-12-03T15:32:52.255Z,101277.48
2022-12-03T15:35:04.932Z,101281.87
2022-12-03T15:37:17.775Z,101280.20
2022-12-03T15:39:30.705Z,101279.77
2022-12-03T15:41:43.284Z,101275.35
2022-12-03T15:43:56.425Z,101272.70
2022-12-03T15:46:09.507Z,101277.69
2022-12-03T15:48:23.140Z,101283.52
2022-12-03T15:50:39.894Z,101288.02
2022-12-03T15:52:53.103Z,101284.02
2022-12-03T15:55:06.474Z,101279.42
2022-12-03T15:57:19.447Z,101286.77
2022-12-03T15:59:32.164Z,101291.27
2022-12-03T16:01:45.082Z,101295.80
2022-12-03T16:03:59.017Z,101299.20
2022-12-03T16:06:12.543Z,101307.13
2022-12-03T16:08:25.336Z,101297.73
2022-12-03T16:10:38.229Z,101296.92
2022-12-03T16:12:51.127Z,101304.22
2022-12-03T16:15:04.161Z,101299.34
2022-12-03T16:17:17.031Z,101295.77
2022-12-03T16:19:29.749Z,101306.88
2022-12-03T16:21:42.699Z,101309.96
2022-12-03T16:23:55.610Z,101317.27
2022-12-03T16:26:09.435Z,101318.01
2022-12-03T16:28:22.712Z,101316.24
2022-12-03T16:30:35.614Z,101306.06
2022-12-03T16:32:48.470Z,101312.84
2022-12-03T16:35:02.039Z,101314.72
2022-12-03T16:37:14.708Z,101319.45
2022-12-03T16:39:32.756Z,101320.42
2022-12-03T16:41:46.408Z,101325.17
2022-12-03T16:43:59.775Z,101321.33
2022-12-03T16:46:26.729Z,101319.38
2022-12-03T16:48:44.850Z,101317.85
2022-12-03T16:50:58.238Z,101322.35
2022-12-03T16:53:11.518Z,101323.23
2022-12-03T16:55:24.475Z,101334.19
2022-12-03T16:57:37.890Z,101336.82
2022-12-03T16:59:51.344Z,101340.76
2022-12-03T17:02:04.527Z,101340.27
2022-12-03T17:04:18.520Z,101344.70
2022-12-03T17:06:32.227Z,101349.77
2022-12-03T17:08:49.357Z,101343.84
2022-12-03T17:11:02.955Z,101336.47
2022-12-03T17:13:16.040Z,101339.34
2022-12-03T17:15:29.038Z,101346.19
2022-12-03T17:17:42.061Z,101347.54
2022-12-03T17:19:57.270Z,101350.40
2022-12-03T17:22:10.280Z,101351.73
2022-12-03T17:24:23.032Z,101352.70
2022-12-03T17:26:36.586Z,101353.08
2022-12-03T17:28:49.409Z,101356.83
2022-12-03T17:31:02.299Z,101363.89
2022-12-03T17:33:15.456Z,101360.66
2022-12-03T17:35:29.614Z,101357.90
2022-12-03T17:37:42.809Z,101362.06
2022-12-03T17:39:56.355Z,101366.83
2022-12-03T17:42:10.258Z,101370.35
2022-12-03T17:44:25.494Z,101372.69
2022-12-03T17:46:39.815Z,101366.19
2022-12-03T17:48:52.915Z,101372.52
2022-12-03T17:51:06.210Z,101376.73
2022-12-03T17:53:19.264Z,101381.59
2022-12-03T17:55:38.567Z,101375.66
2022-12-03T17:57:58.380Z,101371.49
2022-12-03T18:00:14.250Z,101376.64
2022-12-03T18:02:27.415Z,101375.33
2022-12-03T18:04:40.619Z,101376.99
2022-12-03T18:06:57.413Z,101372.14
2022-12-03T18:09:14.482Z,101369.66
2022-12-03T18:11:27.455Z,101367.39
2022-12-03T18:13:40.092Z,101360.94
2022-12-03T18:15:53.000Z,101355.79
2022-12-03T18:18:05.710Z,101351.14
2022-12-03T18:20:19.795Z,101350.16
2022-12-03T18:22:34.194Z,101342.73
2022-12-03T18:24:50.267Z,101352.61
2022-12-03T18:27:04.905Z,101344.41
2022-12-03T18:29:17.802Z,101347.68
2022-12-03T18:31:30.666Z,101340.23
2022-12-03T18:33:43.679Z,101338.49
2022-12-03T18:35:59.376Z,101344.81
2022-12-03T18:38:14.425Z,101335.27
2022-12-03T18:40:28.492Z,101342.02
2022-12-03T18:42:41.429Z,101336.08
2022-12-03T18:44:56.239Z,101331.65
2022-12-03T18:47:14.298Z,101334.80
2022-12-03T18:49:27.405Z,101332.21
2022-12-03T18:51:40.970Z,101330.83
2022-12-03T18:53:53.957Z,101328.27
2022-12-03T18:56:06.584Z,101327.77
2022-12-03T18:58:19.273Z,101325.92
2022-12-03T19:00:32.381Z,101326.73
2022-12-03T19:03:03.504Z,101322.98
2022-12-03T19:05:15.257Z,101313.09
2022-12-03T19:07:28.045Z,101319.52
2022-12-03T19:09:41.060Z,101322.86
2022-12-03T19:11:54.155Z,101321.01
2022-12-03T19:14:07.394Z,101317.94
2022-12-03T19:16:20.733Z,101319.42
2022-12-03T19:18:33.446Z,101319.46
2022-12-03T19:20:48.393Z,101320.96
2022-12-03T19:23:00.907Z,101319.29
2022-12-03T19:25:14.412Z,101320.27
2022-12-03T19:27:27.253Z,101320.65
2022-12-03T19:29:40.035Z,101323.37
2022-12-03T19:31:54.172Z,101315.89
2022-12-03T19:34:07.030Z,101316.73
2022-12-03T19:36:27.848Z,101321.17
2022-12-03T19:38:40.702Z,101316.85
2022-12-03T19:41:00.655Z,101306.46
2022-12-03T19:43:13.475Z,101301.63
2022-12-03T19:45:26.251Z,101307.42
2022-12-03T19:47:39.048Z,101303.34
2022-12-03T19:49:52.200Z,101293.83
2022-12-03T19:52:05.117Z,101292.24
2022-12-03T19:54:18.900Z,101297.95
2022-12-03T19:56:32.382Z,101290.52
2022-12-03T19:58:46.199Z,101290.86
2022-12-03T20:00:58.842Z,101295.27
2022-12-03T20:03:11.705Z,101287.42
2022-12-03T20:05:27.811Z,101287.05
2022-12-03T20:07:43.383Z,101290.83
2022-12-03T20:09:57.999Z,101292.79
2022-12-03T20:12:11.185Z,101289.36
2022-12-03T20:14:25.036Z,101293.14
2022-12-03T20:16:38.241Z,101299.64
2022-12-03T20:18:52.288Z,101294.14
2022-12-03T20:21:05.175Z,101284.91
2022-12-03T20:23:18.808Z,101270.73
2022-12-03T20:25:32.564Z,101284.64
2022-12-03T20:27:45.548Z,101270.56
2022-12-03T20:30:01.174Z,101269.71
2022-12-03T20:32:13.829Z,101265.68
2022-12-03T20:34:27.045Z,101263.73
2022-12-03T20:36:40.461Z,101258.80
2022-12-03T20:38:56.645Z,101257.45
2022-12-03T20:41:10.160Z,101255.58
2022-12-03T20:43:24.097Z,101260.90
2022-12-03T20:45:37.506Z,101257.82
2022-12-03T20:47:50.800Z,101261.89
2022-12-03T20:50:03.763Z,101252.99
2022-12-03T20:52:17.368Z,101249.69
2022-12-03T20:54:30.359Z,101257.15
2022-12-03T20:56:43.582Z,101254.09
2022-12-03T20:58:57.069Z,101259.45
2022-12-03T21:01:17.246Z,101272.56
2022-12-03T21:03:30.801Z,101262.27
2022-12-03T21:05:43.626Z,101267.90
2022-12-03T21:07:56.895Z,101272.14
2022-12-03T21:10:31.182Z,101267.34
2022-12-03T21:12:44.268Z,101276.99
2022-12-03T21:14:58.004Z,101270.34
2022-12-03T21:17:11.715Z,101269.48
2022-12-03T21:19:24.899Z,101270.47
2022-12-03T21:21:38.098Z,101261.67
2022-12-03T21:23:51.485Z,101260.79
2022-12-03T21:26:10.569Z,101261.90
2022-12-03T21:28:41.661Z,101264.01
2022-12-03T21:30:54.198Z,101252.23
2022-12-03T21:33:07.851Z,101251.16
2022-12-03T21:35:22.742Z,101247.23
2022-12-03T21:37:36.553Z,101238.16
2022-12-03T21:39:50.055Z,101236.08
2022-12-03T21:42:34.947Z,101224.20
2022-12-03T21:44:37.866Z,101227.09
2022-12-03T21:47:12.280Z,101229.00
2022-12-03T21:49:26.784Z,101225.73
2022-12-03T21:51:40.538Z,101221.85
2022-12-03T21:53:54.305Z,101217.49
2022-12-03T21:56:11.756Z,101218.08
2022-12-03T21:58:27.650Z,101220.31
2022-12-03T22:00:41.183Z,101216.59
2022-12-03T22:02:54.123Z,101219.10
2022-12-03T22:05:07.710Z,101228.52
2022-12-03T22:07:21.236Z,101232.17
2022-12-03T22:09:34.183Z,101241.86
2022-12-03T22:11:47.420Z,101242.69
2022-12-03T22:14:00.694Z,101229.59
2022-12-03T22:16:16.496Z,101223.02
2022-12-03T22:18:31.037Z,101227.60
2022-12-03T22:20:47.469Z,101227.10
2022-12-03T22:23:01.296Z,101234.61
2022-12-03T22:25:14.579Z,101238.34
2022-12-03T22:27:28.377Z,101234.73
2022-12-03T22:29:42.617Z,101231.94
2022-12-03T22:31:56.250Z,101238.01
2022-12-03T22:34:10.305Z,101234.40
2022-12-03T22:36:24.162Z,101237.74
2022-12-03T22:38:37.766Z,101241.86
2022-12-03T22:40:50.769Z,101239.83
2022-12-03T22:43:03.470Z,101237.46
2022-12-03T22:45:16.851Z,101240.89
2022-12-03T22:47:29.862Z,101239.57
2022-12-03T22:49:43.006Z,101243.93
2022-12-03T22:51:56.401Z,101231.42
2022-12-03T22:54:10.245Z,101226.35
2022-12-03T22:56:25.183Z,101228.75
2022-12-03T22:58:40.593Z,101233.17
2022-12-03T23:00:56.272Z,101235.16
2022-12-03T23:03:13.932Z,101236.49
2022-12-03T23:05:27.236Z,101233.66
2022-12-03T23:07:42.629Z,101238.39
2022-12-03T23:09:55.996Z,101244.11
2022-12-03T23:12:09.351Z,101241.95
2022-12-03T23:14:22.741Z,101239.27
2022-12-03T23:16:37.237Z,101251.14
2022-12-03T23:18:51.296Z,101247.23
2022-12-03T23:21:04.745Z,101248.42
2022-12-03T23:23:19.543Z,101242.73
2022-12-03T23:25:33.395Z,101243.67
2022-12-03T23:27:46.532Z,101243.98
2022-12-03T23:30:00.521Z,101238.05
2022-12-03T23:32:14.272Z,101233.59
2022-12-03T23:34:28.275Z,101231.94
2022-12-03T23:36:41.401Z,101230.62
2022-12-03T23:38:54.460Z,101239.93
2022-12-03T23:41:12.145Z,101238.31
2022-12-03T23:43:25.406Z,101243.06
2022-12-03T23:45:38.945Z,101243.73
2022-12-03T23:47:56.669Z,101246.86
2022-12-03T23:50:13.934Z,101254.32
2022-12-03T23:52:26.908Z,101249.88
2022-12-03T23:54:42.009Z,101247.63
2022-12-03T23:56:55.245Z,101251.88
2022-12-03T23:59:08.377Z,101247.38
